sensor_id;sensor_type;location;lat;lon;timestamp;P1;durP1;ratioP1;P2;durP2;ratioP2
19043;SDS011;9654;52.302;8.120;2024-02-26T00:02:23;7.20;;;4.70;;
19043;SDS011;9654;52.302;8.120;2024-02-26T00:04:50;7.20;;;4.80;;
19043;SDS011;9654;52.302;8.120;2024-02-26T00:07:17;7.40;;;4.50;;
19043;SDS011;9654;52.302;8.120;2024-02-26T00:09:44;5.90;;;4.73;;
19043;SDS011;9654;52.302;8.120;2024-02-26T00:12:10;4.83;;;4.23;;
19043;SDS011;9654;52.302;8.120;2024-02-26T00:14:37;5.00;;;4.37;;
19043;SDS011;9654;52.302;8.120;2024-02-26T00:17:06;4.37;;;3.70;;
19043;SDS011;9654;52.302;8.120;2024-02-26T00:19:32;6.60;;;3.97;;
19043;SDS011;9654;52.302;8.120;2024-02-26T00:22:01;6.07;;;4.10;;
19043;SDS011;9654;52.302;8.120;2024-02-26T00:24:28;4.57;;;3.53;;
19043;SDS011;9654;52.302;8.120;2024-02-26T00:26:59;5.17;;;3.70;;
19043;SDS011;9654;52.302;8.120;2024-02-26T00:29:26;4.70;;;3.57;;
19043;SDS011;9654;52.302;8.120;2024-02-26T00:31:52;5.67;;;3.50;;
19043;SDS011;9654;52.302;8.120;2024-02-26T00:34:21;4.67;;;3.70;;
19043;SDS011;9654;52.302;8.120;2024-02-26T00:36:48;6.77;;;4.53;;
19043;SDS011;9654;52.302;8.120;2024-02-26T00:39:14;4.53;;;4.10;;
19043;SDS011;9654;52.302;8.120;2024-02-26T00:41:41;5.33;;;4.40;;
19043;SDS011;9654;52.302;8.120;2024-02-26T00:44:08;5.57;;;4.00;;
19043;SDS011;9654;52.302;8.120;2024-02-26T00:46:35;6.93;;;4.53;;
19043;SDS011;9654;52.302;8.120;2024-02-26T00:49:02;6.73;;;4.67;;
19043;SDS011;9654;52.302;8.120;2024-02-26T00:51:30;7.50;;;5.07;;
19043;SDS011;9654;52.302;8.120;2024-02-26T00:53:57;5.17;;;4.27;;
19043;SDS011;9654;52.302;8.120;2024-02-26T00:56:24;7.10;;;4.80;;
19043;SDS011;9654;52.302;8.120;2024-02-26T00:58:51;7.03;;;4.87;;
19043;SDS011;9654;52.302;8.120;2024-02-26T01:01:18;6.10;;;4.07;;
19043;SDS011;9654;52.302;8.120;2024-02-26T01:03:45;5.73;;;4.13;;
19043;SDS011;9654;52.302;8.120;2024-02-26T01:06:12;5.10;;;3.97;;
19043;SDS011;9654;52.302;8.120;2024-02-26T01:08:40;7.07;;;4.50;;
19043;SDS011;9654;52.302;8.120;2024-02-26T01:11:07;6.20;;;3.87;;
19043;SDS011;9654;52.302;8.120;2024-02-26T01:13:34;5.57;;;4.37;;
19043;SDS011;9654;52.302;8.120;2024-02-26T01:16:01;6.27;;;4.60;;
19043;SDS011;9654;52.302;8.120;2024-02-26T01:18:28;5.80;;;4.27;;
19043;SDS011;9654;52.302;8.120;2024-02-26T01:20:55;10.90;;;5.13;;
19043;SDS011;9654;52.302;8.120;2024-02-26T01:23:22;5.90;;;4.70;;
19043;SDS011;9654;52.302;8.120;2024-02-26T01:25:50;6.97;;;4.70;;
19043;SDS011;9654;52.302;8.120;2024-02-26T01:28:17;7.20;;;4.67;;
19043;SDS011;9654;52.302;8.120;2024-02-26T01:30:44;5.20;;;4.53;;
19043;SDS011;9654;52.302;8.120;2024-02-26T01:33:10;4.97;;;4.20;;
19043;SDS011;9654;52.302;8.120;2024-02-26T01:35:37;7.87;;;5.00;;
19043;SDS011;9654;52.302;8.120;2024-02-26T01:38:04;6.60;;;4.90;;
19043;SDS011;9654;52.302;8.120;2024-02-26T01:40:32;6.40;;;4.80;;
19043;SDS011;9654;52.302;8.120;2024-02-26T01:43:00;5.60;;;4.80;;
19043;SDS011;9654;52.302;8.120;2024-02-26T01:45:27;7.87;;;5.17;;
19043;SDS011;9654;52.302;8.120;2024-02-26T01:47:54;6.50;;;5.00;;
19043;SDS011;9654;52.302;8.120;2024-02-26T01:50:22;7.13;;;5.13;;
19043;SDS011;9654;52.302;8.120;2024-02-26T01:52:50;7.43;;;4.83;;
19043;SDS011;9654;52.302;8.120;2024-02-26T01:55:19;7.13;;;4.80;;
19043;SDS011;9654;52.302;8.120;2024-02-26T01:57:52;7.07;;;5.10;;
19043;SDS011;9654;52.302;8.120;2024-02-26T02:00:21;8.07;;;5.20;;
19043;SDS011;9654;52.302;8.120;2024-02-26T02:02:49;7.97;;;5.23;;
19043;SDS011;9654;52.302;8.120;2024-02-26T02:05:17;5.97;;;4.77;;
19043;SDS011;9654;52.302;8.120;2024-02-26T02:07:46;4.63;;;4.10;;
19043;SDS011;9654;52.302;8.120;2024-02-26T02:10:14;6.60;;;4.73;;
19043;SDS011;9654;52.302;8.120;2024-02-26T02:12:43;6.80;;;4.67;;
19043;SDS011;9654;52.302;8.120;2024-02-26T02:15:10;5.90;;;4.50;;
19043;SDS011;9654;52.302;8.120;2024-02-26T02:17:38;8.57;;;4.87;;
19043;SDS011;9654;52.302;8.120;2024-02-26T02:20:07;4.90;;;4.50;;
19043;SDS011;9654;52.302;8.120;2024-02-26T02:22:36;5.00;;;4.00;;
19043;SDS011;9654;52.302;8.120;2024-02-26T02:25:04;4.50;;;3.67;;
19043;SDS011;9654;52.302;8.120;2024-02-26T02:27:31;5.17;;;3.90;;
19043;SDS011;9654;52.302;8.120;2024-02-26T02:29:58;3.93;;;3.50;;
19043;SDS011;9654;52.302;8.120;2024-02-26T02:32:26;5.27;;;4.17;;
19043;SDS011;9654;52.302;8.120;2024-02-26T02:34:53;4.00;;;3.70;;
19043;SDS011;9654;52.302;8.120;2024-02-26T02:37:20;4.20;;;3.60;;
19043;SDS011;9654;52.302;8.120;2024-02-26T02:39:49;3.90;;;3.50;;
19043;SDS011;9654;52.302;8.120;2024-02-26T02:42:15;5.27;;;3.90;;
19043;SDS011;9654;52.302;8.120;2024-02-26T02:44:42;3.67;;;3.37;;
19043;SDS011;9654;52.302;8.120;2024-02-26T02:47:12;3.60;;;3.10;;
19043;SDS011;9654;52.302;8.120;2024-02-26T02:49:39;6.47;;;3.70;;
19043;SDS011;9654;52.302;8.120;2024-02-26T02:52:06;5.10;;;3.90;;
19043;SDS011;9654;52.302;8.120;2024-02-26T02:54:32;4.13;;;3.53;;
19043;SDS011;9654;52.302;8.120;2024-02-26T02:57:00;4.97;;;3.20;;
19043;SDS011;9654;52.302;8.120;2024-02-26T02:59:27;3.40;;;3.17;;
19043;SDS011;9654;52.302;8.120;2024-02-26T03:01:54;4.03;;;3.47;;
19043;SDS011;9654;52.302;8.120;2024-02-26T03:04:20;5.20;;;3.40;;
19043;SDS011;9654;52.302;8.120;2024-02-26T03:06:47;3.60;;;3.30;;
19043;SDS011;9654;52.302;8.120;2024-02-26T03:09:14;3.67;;;3.37;;
19043;SDS011;9654;52.302;8.120;2024-02-26T03:15:27;4.07;;;3.67;;
19043;SDS011;9654;52.302;8.120;2024-02-26T03:17:54;6.80;;;3.80;;
19043;SDS011;9654;52.302;8.120;2024-02-26T03:20:21;4.80;;;3.63;;
19043;SDS011;9654;52.302;8.120;2024-02-26T03:22:48;3.63;;;3.33;;
19043;SDS011;9654;52.302;8.120;2024-02-26T03:25:15;3.83;;;3.27;;
19043;SDS011;9654;52.302;8.120;2024-02-26T03:27:41;3.97;;;3.53;;
19043;SDS011;9654;52.302;8.120;2024-02-26T03:30:10;3.70;;;3.40;;
19043;SDS011;9654;52.302;8.120;2024-02-26T03:32:38;3.97;;;3.23;;
19043;SDS011;9654;52.302;8.120;2024-02-26T03:35:05;3.37;;;3.07;;
19043;SDS011;9654;52.302;8.120;2024-02-26T03:37:34;3.93;;;3.33;;
19043;SDS011;9654;52.302;8.120;2024-02-26T03:40:01;3.57;;;3.27;;
19043;SDS011;9654;52.302;8.120;2024-02-26T03:42:28;4.40;;;4.00;;
19043;SDS011;9654;52.302;8.120;2024-02-26T03:44:55;4.03;;;3.43;;
19043;SDS011;9654;52.302;8.120;2024-02-26T03:47:26;6.10;;;3.80;;
19043;SDS011;9654;52.302;8.120;2024-02-26T03:49:54;3.60;;;3.30;;
19043;SDS011;9654;52.302;8.120;2024-02-26T03:52:21;4.37;;;3.83;;
19043;SDS011;9654;52.302;8.120;2024-02-26T03:54:48;5.70;;;3.27;;
19043;SDS011;9654;52.302;8.120;2024-02-26T03:57:15;5.00;;;3.60;;
19043;SDS011;9654;52.302;8.120;2024-02-26T03:59:43;4.00;;;3.30;;
19043;SDS011;9654;52.302;8.120;2024-02-26T04:02:10;4.20;;;3.80;;
19043;SDS011;9654;52.302;8.120;2024-02-26T04:07:07;4.03;;;3.73;;
19043;SDS011;9654;52.302;8.120;2024-02-26T04:09:33;4.57;;;3.77;;
19043;SDS011;9654;52.302;8.120;2024-02-26T04:12:00;3.87;;;3.57;;
19043;SDS011;9654;52.302;8.120;2024-02-26T04:14:27;4.33;;;3.93;;
19043;SDS011;9654;52.302;8.120;2024-02-26T04:16:54;5.90;;;4.03;;
19043;SDS011;9654;52.302;8.120;2024-02-26T04:19:21;4.70;;;3.97;;
19043;SDS011;9654;52.302;8.120;2024-02-26T04:21:48;5.47;;;4.40;;
19043;SDS011;9654;52.302;8.120;2024-02-26T04:24:16;4.87;;;4.43;;
19043;SDS011;9654;52.302;8.120;2024-02-26T04:26:43;4.57;;;4.17;;
19043;SDS011;9654;52.302;8.120;2024-02-26T04:29:09;6.17;;;4.97;;
19043;SDS011;9654;52.302;8.120;2024-02-26T04:31:37;5.90;;;4.50;;
19043;SDS011;9654;52.302;8.120;2024-02-26T04:34:04;8.67;;;4.90;;
19043;SDS011;9654;52.302;8.120;2024-02-26T04:36:31;8.73;;;4.97;;
19043;SDS011;9654;52.302;8.120;2024-02-26T04:38:58;5.27;;;4.77;;
19043;SDS011;9654;52.302;8.120;2024-02-26T04:41:26;7.30;;;4.80;;
19043;SDS011;9654;52.302;8.120;2024-02-26T04:43:53;5.60;;;4.73;;
19043;SDS011;9654;52.302;8.120;2024-02-26T04:46:20;5.97;;;4.80;;
19043;SDS011;9654;52.302;8.120;2024-02-26T04:48:47;5.97;;;5.17;;
19043;SDS011;9654;52.302;8.120;2024-02-26T04:51:14;6.27;;;4.60;;
19043;SDS011;9654;52.302;8.120;2024-02-26T04:53:41;7.00;;;4.40;;
19043;SDS011;9654;52.302;8.120;2024-02-26T04:56:08;4.93;;;4.43;;
19043;SDS011;9654;52.302;8.120;2024-02-26T04:58:36;5.57;;;4.90;;
19043;SDS011;9654;52.302;8.120;2024-02-26T05:01:03;6.97;;;5.23;;
19043;SDS011;9654;52.302;8.120;2024-02-26T05:03:30;7.60;;;5.20;;
19043;SDS011;9654;52.302;8.120;2024-02-26T05:05:57;5.57;;;5.00;;
19043;SDS011;9654;52.302;8.120;2024-02-26T05:08:24;6.23;;;5.40;;
19043;SDS011;9654;52.302;8.120;2024-02-26T05:10:51;6.20;;;5.47;;
19043;SDS011;9654;52.302;8.120;2024-02-26T05:13:17;7.33;;;5.30;;
19043;SDS011;9654;52.302;8.120;2024-02-26T05:15:46;6.07;;;4.97;;
19043;SDS011;9654;52.302;8.120;2024-02-26T05:18:14;5.77;;;4.90;;
19043;SDS011;9654;52.302;8.120;2024-02-26T05:20:41;6.27;;;4.57;;
19043;SDS011;9654;52.302;8.120;2024-02-26T05:23:08;6.43;;;5.37;;
19043;SDS011;9654;52.302;8.120;2024-02-26T05:25:35;5.60;;;4.13;;
19043;SDS011;9654;52.302;8.120;2024-02-26T05:28:02;5.43;;;4.40;;
19043;SDS011;9654;52.302;8.120;2024-02-26T05:30:29;5.77;;;4.83;;
19043;SDS011;9654;52.302;8.120;2024-02-26T05:32:57;7.33;;;4.87;;
19043;SDS011;9654;52.302;8.120;2024-02-26T05:35:24;4.60;;;4.20;;
19043;SDS011;9654;52.302;8.120;2024-02-26T05:37:52;5.03;;;4.17;;
19043;SDS011;9654;52.302;8.120;2024-02-26T05:40:19;5.50;;;4.50;;
19043;SDS011;9654;52.302;8.120;2024-02-26T05:42:45;7.37;;;4.70;;
19043;SDS011;9654;52.302;8.120;2024-02-26T05:45:14;5.07;;;4.57;;
19043;SDS011;9654;52.302;8.120;2024-02-26T05:47:41;5.57;;;4.43;;
19043;SDS011;9654;52.302;8.120;2024-02-26T05:50:10;7.07;;;5.27;;
19043;SDS011;9654;52.302;8.120;2024-02-26T05:52:37;7.13;;;4.90;;
19043;SDS011;9654;52.302;8.120;2024-02-26T05:55:04;7.03;;;4.83;;
19043;SDS011;9654;52.302;8.120;2024-02-26T05:57:32;6.13;;;4.37;;
19043;SDS011;9654;52.302;8.120;2024-02-26T06:00:00;5.37;;;4.87;;
19043;SDS011;9654;52.302;8.120;2024-02-26T06:02:29;6.47;;;5.10;;
19043;SDS011;9654;52.302;8.120;2024-02-26T06:04:55;6.50;;;5.23;;
19043;SDS011;9654;52.302;8.120;2024-02-26T06:07:24;5.63;;;5.03;;
19043;SDS011;9654;52.302;8.120;2024-02-26T06:09:51;6.30;;;4.77;;
19043;SDS011;9654;52.302;8.120;2024-02-26T06:12:17;7.83;;;5.30;;
19043;SDS011;9654;52.302;8.120;2024-02-26T06:14:44;9.90;;;5.57;;
19043;SDS011;9654;52.302;8.120;2024-02-26T06:17:12;9.00;;;5.87;;
19043;SDS011;9654;52.302;8.120;2024-02-26T06:19:39;7.40;;;5.37;;
19043;SDS011;9654;52.302;8.120;2024-02-26T06:22:06;7.77;;;5.60;;
19043;SDS011;9654;52.302;8.120;2024-02-26T06:24:34;8.20;;;5.77;;
19043;SDS011;9654;52.302;8.120;2024-02-26T06:27:01;10.07;;;5.53;;
19043;SDS011;9654;52.302;8.120;2024-02-26T06:35:57;8.60;;;5.27;;
19043;SDS011;9654;52.302;8.120;2024-02-26T06:38:23;7.43;;;4.90;;
19043;SDS011;9654;52.302;8.120;2024-02-26T06:40:52;8.20;;;5.97;;
19043;SDS011;9654;52.302;8.120;2024-02-26T06:43:19;8.67;;;5.43;;
19043;SDS011;9654;52.302;8.120;2024-02-26T06:45:46;6.33;;;5.23;;
19043;SDS011;9654;52.302;8.120;2024-02-26T06:48:12;6.00;;;4.67;;
19043;SDS011;9654;52.302;8.120;2024-02-26T06:50:39;7.40;;;4.90;;
19043;SDS011;9654;52.302;8.120;2024-02-26T06:53:06;7.77;;;5.07;;
19043;SDS011;9654;52.302;8.120;2024-02-26T06:55:33;6.53;;;4.87;;
19043;SDS011;9654;52.302;8.120;2024-02-26T06:58:01;7.83;;;4.77;;
19043;SDS011;9654;52.302;8.120;2024-02-26T07:00:28;7.23;;;4.60;;
19043;SDS011;9654;52.302;8.120;2024-02-26T07:02:55;7.90;;;4.70;;
19043;SDS011;9654;52.302;8.120;2024-02-26T07:05:23;5.47;;;4.80;;
19043;SDS011;9654;52.302;8.120;2024-02-26T07:07:50;6.97;;;4.87;;
19043;SDS011;9654;52.302;8.120;2024-02-26T07:10:17;7.67;;;3.90;;
19043;SDS011;9654;52.302;8.120;2024-02-26T07:12:44;5.80;;;4.20;;
19043;SDS011;9654;52.302;8.120;2024-02-26T07:15:12;5.67;;;4.57;;
19043;SDS011;9654;52.302;8.120;2024-02-26T07:17:39;5.73;;;4.50;;
19043;SDS011;9654;52.302;8.120;2024-02-26T07:20:12;7.97;;;4.50;;
19043;SDS011;9654;52.302;8.120;2024-02-26T07:22:39;4.57;;;4.07;;
19043;SDS011;9654;52.302;8.120;2024-02-26T07:25:07;7.20;;;4.10;;
19043;SDS011;9654;52.302;8.120;2024-02-26T07:27:38;6.33;;;3.90;;
19043;SDS011;9654;52.302;8.120;2024-02-26T07:30:05;6.37;;;4.00;;
19043;SDS011;9654;52.302;8.120;2024-02-26T07:32:34;4.70;;;3.57;;
19043;SDS011;9654;52.302;8.120;2024-02-26T07:35:01;6.23;;;3.53;;
19043;SDS011;9654;52.302;8.120;2024-02-26T07:37:28;5.77;;;3.73;;
19043;SDS011;9654;52.302;8.120;2024-02-26T07:39:55;3.47;;;3.17;;
19043;SDS011;9654;52.302;8.120;2024-02-26T07:42:22;3.43;;;3.13;;
19043;SDS011;9654;52.302;8.120;2024-02-26T07:44:48;4.30;;;3.30;;
19043;SDS011;9654;52.302;8.120;2024-02-26T07:47:15;3.70;;;3.13;;
19043;SDS011;9654;52.302;8.120;2024-02-26T07:49:44;4.43;;;3.40;;
19043;SDS011;9654;52.302;8.120;2024-02-26T07:52:10;8.10;;;3.70;;
19043;SDS011;9654;52.302;8.120;2024-02-26T07:54:37;5.23;;;3.67;;
19043;SDS011;9654;52.302;8.120;2024-02-26T07:57:04;4.70;;;4.10;;
19043;SDS011;9654;52.302;8.120;2024-02-26T07:59:32;4.40;;;4.00;;
19043;SDS011;9654;52.302;8.120;2024-02-26T08:01:59;4.80;;;4.27;;
19043;SDS011;9654;52.302;8.120;2024-02-26T08:04:28;4.00;;;3.60;;
19043;SDS011;9654;52.302;8.120;2024-02-26T08:06:56;4.73;;;4.03;;
19043;SDS011;9654;52.302;8.120;2024-02-26T08:09:23;4.13;;;3.73;;
19043;SDS011;9654;52.302;8.120;2024-02-26T08:11:50;4.50;;;3.57;;
19043;SDS011;9654;52.302;8.120;2024-02-26T08:14:17;5.20;;;3.63;;
19043;SDS011;9654;52.302;8.120;2024-02-26T08:16:43;5.53;;;3.90;;
19043;SDS011;9654;52.302;8.120;2024-02-26T08:19:10;5.43;;;3.80;;
19043;SDS011;9654;52.302;8.120;2024-02-26T08:21:40;4.30;;;3.80;;
19043;SDS011;9654;52.302;8.120;2024-02-26T08:24:08;5.57;;;3.63;;
19043;SDS011;9654;52.302;8.120;2024-02-26T08:26:35;4.10;;;3.70;;
19043;SDS011;9654;52.302;8.120;2024-02-26T08:29:02;6.23;;;3.93;;
19043;SDS011;9654;52.302;8.120;2024-02-26T08:31:29;5.23;;;3.53;;
19043;SDS011;9654;52.302;8.120;2024-02-26T08:33:56;8.07;;;3.97;;
19043;SDS011;9654;52.302;8.120;2024-02-26T08:36:23;4.50;;;3.70;;
19043;SDS011;9654;52.302;8.120;2024-02-26T08:38:50;6.57;;;3.93;;
19043;SDS011;9654;52.302;8.120;2024-02-26T08:41:18;6.23;;;3.53;;
19043;SDS011;9654;52.302;8.120;2024-02-26T08:43:45;4.60;;;3.90;;
19043;SDS011;9654;52.302;8.120;2024-02-26T08:46:12;4.53;;;3.83;;
19043;SDS011;9654;52.302;8.120;2024-02-26T08:48:39;6.57;;;3.70;;
19043;SDS011;9654;52.302;8.120;2024-02-26T08:51:06;4.37;;;3.97;;
19043;SDS011;9654;52.302;8.120;2024-02-26T08:53:33;5.37;;;4.00;;
19043;SDS011;9654;52.302;8.120;2024-02-26T08:55:59;7.10;;;3.93;;
19043;SDS011;9654;52.302;8.120;2024-02-26T08:58:28;4.70;;;3.73;;
19043;SDS011;9654;52.302;8.120;2024-02-26T09:00:55;5.87;;;3.77;;
19043;SDS011;9654;52.302;8.120;2024-02-26T09:03:22;6.57;;;3.93;;
19043;SDS011;9654;52.302;8.120;2024-02-26T09:05:49;4.90;;;3.80;;
19043;SDS011;9654;52.302;8.120;2024-02-26T09:08:16;4.40;;;3.67;;
19043;SDS011;9654;52.302;8.120;2024-02-26T09:10:42;6.43;;;4.67;;
19043;SDS011;9654;52.302;8.120;2024-02-26T09:13:09;4.67;;;4.27;;
19043;SDS011;9654;52.302;8.120;2024-02-26T09:15:37;4.87;;;3.93;;
19043;SDS011;9654;52.302;8.120;2024-02-26T09:18:04;7.57;;;4.57;;
19043;SDS011;9654;52.302;8.120;2024-02-26T09:20:31;6.43;;;4.43;;
19043;SDS011;9654;52.302;8.120;2024-02-26T09:22:58;5.30;;;4.23;;
19043;SDS011;9654;52.302;8.120;2024-02-26T09:25:25;6.30;;;3.70;;
19043;SDS011;9654;52.302;8.120;2024-02-26T09:27:52;7.60;;;4.07;;
19043;SDS011;9654;52.302;8.120;2024-02-26T09:30:19;5.63;;;4.20;;
19043;SDS011;9654;52.302;8.120;2024-02-26T09:32:48;7.27;;;4.13;;
19043;SDS011;9654;52.302;8.120;2024-02-26T09:35:15;4.50;;;3.80;;
19043;SDS011;9654;52.302;8.120;2024-02-26T09:37:41;7.60;;;3.73;;
19043;SDS011;9654;52.302;8.120;2024-02-26T09:40:09;3.90;;;3.30;;
19043;SDS011;9654;52.302;8.120;2024-02-26T09:42:37;4.13;;;3.33;;
19043;SDS011;9654;52.302;8.120;2024-02-26T09:45:09;3.73;;;3.27;;
19043;SDS011;9654;52.302;8.120;2024-02-26T09:47:38;4.07;;;3.10;;
19043;SDS011;9654;52.302;8.120;2024-02-26T09:50:07;3.47;;;3.10;;
19043;SDS011;9654;52.302;8.120;2024-02-26T09:52:37;5.83;;;3.10;;
19043;SDS011;9654;52.302;8.120;2024-02-26T09:55:05;4.17;;;3.43;;
19043;SDS011;9654;52.302;8.120;2024-02-26T09:57:34;4.80;;;3.60;;
19043;SDS011;9654;52.302;8.120;2024-02-26T10:00:02;3.53;;;3.03;;
19043;SDS011;9654;52.302;8.120;2024-02-26T10:02:31;3.97;;;3.47;;
19043;SDS011;9654;52.302;8.120;2024-02-26T10:05:01;4.67;;;3.03;;
19043;SDS011;9654;52.302;8.120;2024-02-26T10:07:33;4.00;;;3.60;;
19043;SDS011;9654;52.302;8.120;2024-02-26T10:10:01;3.63;;;3.27;;
19043;SDS011;9654;52.302;8.120;2024-02-26T10:12:29;5.57;;;3.27;;
19043;SDS011;9654;52.302;8.120;2024-02-26T10:14:57;4.20;;;2.97;;
19043;SDS011;9654;52.302;8.120;2024-02-26T10:17:24;4.63;;;3.13;;
19043;SDS011;9654;52.302;8.120;2024-02-26T10:19:53;3.43;;;3.03;;
19043;SDS011;9654;52.302;8.120;2024-02-26T10:22:21;4.67;;;3.10;;
19043;SDS011;9654;52.302;8.120;2024-02-26T10:24:50;2.87;;;2.63;;
19043;SDS011;9654;52.302;8.120;2024-02-26T10:27:17;3.17;;;2.87;;
19043;SDS011;9654;52.302;8.120;2024-02-26T10:29:45;3.80;;;2.90;;
19043;SDS011;9654;52.302;8.120;2024-02-26T10:32:12;3.70;;;2.90;;
19043;SDS011;9654;52.302;8.120;2024-02-26T10:34:39;4.20;;;2.63;;
19043;SDS011;9654;52.302;8.120;2024-02-26T10:37:06;4.27;;;2.97;;
19043;SDS011;9654;52.302;8.120;2024-02-26T10:39:36;2.73;;;2.43;;
19043;SDS011;9654;52.302;8.120;2024-02-26T10:42:05;3.77;;;2.73;;
19043;SDS011;9654;52.302;8.120;2024-02-26T10:44:39;4.03;;;2.97;;
19043;SDS011;9654;52.302;8.120;2024-02-26T10:47:07;2.80;;;2.50;;
19043;SDS011;9654;52.302;8.120;2024-02-26T10:49:35;2.80;;;2.50;;
19043;SDS011;9654;52.302;8.120;2024-02-26T10:52:02;2.77;;;2.57;;
19043;SDS011;9654;52.302;8.120;2024-02-26T10:54:31;4.90;;;2.40;;
19043;SDS011;9654;52.302;8.120;2024-02-26T10:56:59;3.73;;;2.80;;
19043;SDS011;9654;52.302;8.120;2024-02-26T10:59:28;4.03;;;3.20;;
19043;SDS011;9654;52.302;8.120;2024-02-26T11:01:58;9.80;;;7.20;;
19043;SDS011;9654;52.302;8.120;2024-02-26T11:04:25;4.87;;;4.17;;
19043;SDS011;9654;52.302;8.120;2024-02-26T11:06:54;6.43;;;4.10;;
19043;SDS011;9654;52.302;8.120;2024-02-26T11:09:26;8.47;;;4.90;;
19043;SDS011;9654;52.302;8.120;2024-02-26T11:11:54;3.50;;;3.20;;
19043;SDS011;9654;52.302;8.120;2024-02-26T11:14:22;3.07;;;2.83;;
19043;SDS011;9654;52.302;8.120;2024-02-26T11:16:52;3.57;;;3.27;;
19043;SDS011;9654;52.302;8.120;2024-02-26T11:19:20;4.60;;;3.30;;
19043;SDS011;9654;52.302;8.120;2024-02-26T11:21:47;3.87;;;2.90;;
19043;SDS011;9654;52.302;8.120;2024-02-26T11:24:15;3.90;;;3.47;;
19043;SDS011;9654;52.302;8.120;2024-02-26T11:26:46;10.20;;;7.43;;
19043;SDS011;9654;52.302;8.120;2024-02-26T11:29:16;9.80;;;8.30;;
19043;SDS011;9654;52.302;8.120;2024-02-26T11:31:47;7.27;;;4.53;;
19043;SDS011;9654;52.302;8.120;2024-02-26T11:34:16;3.43;;;3.13;;
19043;SDS011;9654;52.302;8.120;2024-02-26T11:36:43;3.43;;;3.10;;
19043;SDS011;9654;52.302;8.120;2024-02-26T11:39:11;2.70;;;2.50;;
19043;SDS011;9654;52.302;8.120;2024-02-26T11:41:42;5.37;;;2.80;;
19043;SDS011;9654;52.302;8.120;2024-02-26T11:44:08;4.50;;;3.00;;
19043;SDS011;9654;52.302;8.120;2024-02-26T11:46:38;3.80;;;2.63;;
19043;SDS011;9654;52.302;8.120;2024-02-26T11:51:58;4.07;;;3.10;;
19043;SDS011;9654;52.302;8.120;2024-02-26T11:54:38;3.53;;;3.00;;
19043;SDS011;9654;52.302;8.120;2024-02-26T11:57:25;4.10;;;3.33;;
19043;SDS011;9654;52.302;8.120;2024-02-26T11:59:54;4.30;;;2.90;;
19043;SDS011;9654;52.302;8.120;2024-02-26T12:02:40;2.93;;;2.63;;
19043;SDS011;9654;52.302;8.120;2024-02-26T12:05:12;3.50;;;2.53;;
19043;SDS011;9654;52.302;8.120;2024-02-26T12:07:42;3.47;;;2.43;;
19043;SDS011;9654;52.302;8.120;2024-02-26T12:13:03;2.80;;;2.53;;
19043;SDS011;9654;52.302;8.120;2024-02-26T12:15:32;2.87;;;2.57;;
19043;SDS011;9654;52.302;8.120;2024-02-26T12:18:01;2.80;;;2.50;;
19043;SDS011;9654;52.302;8.120;2024-02-26T12:20:30;3.27;;;2.83;;
19043;SDS011;9654;52.302;8.120;2024-02-26T12:22:57;3.90;;;2.57;;
19043;SDS011;9654;52.302;8.120;2024-02-26T12:25:25;5.17;;;2.57;;
19043;SDS011;9654;52.302;8.120;2024-02-26T12:27:53;3.60;;;2.70;;
19043;SDS011;9654;52.302;8.120;2024-02-26T12:30:20;3.47;;;2.53;;
19043;SDS011;9654;52.302;8.120;2024-02-26T12:32:47;2.93;;;2.63;;
19043;SDS011;9654;52.302;8.120;2024-02-26T12:35:16;2.97;;;2.50;;
19043;SDS011;9654;52.302;8.120;2024-02-26T12:37:44;5.40;;;2.40;;
19043;SDS011;9654;52.302;8.120;2024-02-26T12:40:12;4.17;;;2.70;;
19043;SDS011;9654;52.302;8.120;2024-02-26T12:42:39;4.27;;;2.80;;
19043;SDS011;9654;52.302;8.120;2024-02-26T12:45:07;4.33;;;2.40;;
19043;SDS011;9654;52.302;8.120;2024-02-26T12:47:36;4.17;;;2.40;;
19043;SDS011;9654;52.302;8.120;2024-02-26T12:50:04;4.73;;;2.83;;
19043;SDS011;9654;52.302;8.120;2024-02-26T12:52:32;3.37;;;2.33;;
19043;SDS011;9654;52.302;8.120;2024-02-26T12:55:01;3.03;;;2.77;;
19043;SDS011;9654;52.302;8.120;2024-02-26T12:57:30;3.50;;;2.67;;
19043;SDS011;9654;52.302;8.120;2024-02-26T12:59:58;2.93;;;2.70;;
19043;SDS011;9654;52.302;8.120;2024-02-26T13:02:26;2.13;;;2.03;;
19043;SDS011;9654;52.302;8.120;2024-02-26T13:04:53;3.33;;;2.60;;
19043;SDS011;9654;52.302;8.120;2024-02-26T13:07:21;4.73;;;2.23;;
19043;SDS011;9654;52.302;8.120;2024-02-26T13:09:49;2.80;;;2.60;;
19043;SDS011;9654;52.302;8.120;2024-02-26T13:12:17;2.83;;;2.07;;
19043;SDS011;9654;52.302;8.120;2024-02-26T13:14:44;2.87;;;2.07;;
19043;SDS011;9654;52.302;8.120;2024-02-26T13:17:11;3.70;;;2.80;;
19043;SDS011;9654;52.302;8.120;2024-02-26T13:19:48;3.30;;;2.80;;
19043;SDS011;9654;52.302;8.120;2024-02-26T13:22:15;2.50;;;2.30;;
19043;SDS011;9654;52.302;8.120;2024-02-26T13:24:42;3.50;;;2.50;;
19043;SDS011;9654;52.302;8.120;2024-02-26T13:27:09;3.47;;;2.67;;
19043;SDS011;9654;52.302;8.120;2024-02-26T13:29:37;3.47;;;2.90;;
19043;SDS011;9654;52.302;8.120;2024-02-26T13:32:04;6.20;;;4.27;;
19043;SDS011;9654;52.302;8.120;2024-02-26T13:34:32;3.23;;;2.97;;
19043;SDS011;9654;52.302;8.120;2024-02-26T13:37:00;3.70;;;3.40;;
19043;SDS011;9654;52.302;8.120;2024-02-26T13:39:28;2.90;;;2.70;;
19043;SDS011;9654;52.302;8.120;2024-02-26T13:41:55;2.70;;;2.50;;
19043;SDS011;9654;52.302;8.120;2024-02-26T13:44:22;4.93;;;2.87;;
19043;SDS011;9654;52.302;8.120;2024-02-26T13:46:51;2.73;;;2.50;;
19043;SDS011;9654;52.302;8.120;2024-02-26T13:49:18;3.23;;;2.67;;
19043;SDS011;9654;52.302;8.120;2024-02-26T13:51:44;2.90;;;2.70;;
19043;SDS011;9654;52.302;8.120;2024-02-26T13:54:11;3.00;;;2.63;;
19043;SDS011;9654;52.302;8.120;2024-02-26T13:56:39;3.53;;;2.27;;
19043;SDS011;9654;52.302;8.120;2024-02-26T13:59:06;3.27;;;2.70;;
19043;SDS011;9654;52.302;8.120;2024-02-26T14:01:33;6.60;;;3.00;;
19043;SDS011;9654;52.302;8.120;2024-02-26T14:04:02;3.00;;;2.57;;
19043;SDS011;9654;52.302;8.120;2024-02-26T14:06:29;4.53;;;2.63;;
19043;SDS011;9654;52.302;8.120;2024-02-26T14:08:57;5.27;;;2.90;;
19043;SDS011;9654;52.302;8.120;2024-02-26T14:11:24;4.10;;;2.80;;
19043;SDS011;9654;52.302;8.120;2024-02-26T14:13:54;2.93;;;2.73;;
19043;SDS011;9654;52.302;8.120;2024-02-26T14:16:22;2.90;;;2.70;;
19043;SDS011;9654;52.302;8.120;2024-02-26T14:18:49;5.03;;;3.40;;
19043;SDS011;9654;52.302;8.120;2024-02-26T14:21:17;3.53;;;3.23;;
19043;SDS011;9654;52.302;8.120;2024-02-26T14:23:44;2.73;;;2.53;;
19043;SDS011;9654;52.302;8.120;2024-02-26T14:26:13;3.10;;;2.57;;
19043;SDS011;9654;52.302;8.120;2024-02-26T14:28:39;2.77;;;2.57;;
19043;SDS011;9654;52.302;8.120;2024-02-26T14:31:06;4.47;;;2.60;;
19043;SDS011;9654;52.302;8.120;2024-02-26T14:33:37;3.23;;;2.73;;
19043;SDS011;9654;52.302;8.120;2024-02-26T14:36:05;4.53;;;2.73;;
19043;SDS011;9654;52.302;8.120;2024-02-26T14:38:34;3.30;;;2.73;;
19043;SDS011;9654;52.302;8.120;2024-02-26T14:41:02;3.23;;;2.93;;
19043;SDS011;9654;52.302;8.120;2024-02-26T14:43:29;4.10;;;2.73;;
19043;SDS011;9654;52.302;8.120;2024-02-26T14:45:57;3.27;;;2.97;;
19043;SDS011;9654;52.302;8.120;2024-02-26T14:48:24;3.60;;;2.90;;
19043;SDS011;9654;52.302;8.120;2024-02-26T14:50:51;3.67;;;3.07;;
19043;SDS011;9654;52.302;8.120;2024-02-26T14:53:18;3.27;;;2.97;;
19043;SDS011;9654;52.302;8.120;2024-02-26T14:55:47;3.63;;;3.33;;
19043;SDS011;9654;52.302;8.120;2024-02-26T14:58:14;4.10;;;3.53;;
19043;SDS011;9654;52.302;8.120;2024-02-26T15:00:41;6.87;;;3.93;;
19043;SDS011;9654;52.302;8.120;2024-02-26T15:03:11;4.67;;;3.70;;
19043;SDS011;9654;52.302;8.120;2024-02-26T15:05:38;5.83;;;3.30;;
19043;SDS011;9654;52.302;8.120;2024-02-26T15:08:05;6.37;;;3.83;;
19043;SDS011;9654;52.302;8.120;2024-02-26T15:10:34;3.87;;;3.33;;
19043;SDS011;9654;52.302;8.120;2024-02-26T15:13:02;5.13;;;3.70;;
19043;SDS011;9654;52.302;8.120;2024-02-26T15:15:30;5.07;;;3.70;;
19043;SDS011;9654;52.302;8.120;2024-02-26T15:17:57;5.03;;;3.77;;
19043;SDS011;9654;52.302;8.120;2024-02-26T15:20:23;5.13;;;3.70;;
19043;SDS011;9654;52.302;8.120;2024-02-26T15:22:51;4.63;;;3.70;;